EFVA

Vaasa Airport

Vaasa, Finland
TAF EFVA 151135Z 1512/1612 34005KT 9999 FEW035
Issued Valid From Valid To
Aug-15 @ 11:35 UTC
(an hour ago)
Aug-15 @ 12:00 UTC
(40 minutes ago)
Aug-16 @ 12:00 UTC
(in 23 hours)
Aug-15 @ 12:00 to Aug-16 @ 12:00
TAF EFVA 151135Z 1512/1612 34005KT 9999 FEW035
Wind Visibility Clouds
340° at 5 knots 10,000+ meters
  • Few at 3,500' AGL
TAF EFVA 151135Z 1512/1612 34005KT 9999 FEW035
Issued Aug-15 @ 11:35 UTC
(an hour ago)
Valid From Aug-15 @ 12:00 UTC
(40 minutes ago)
Valid To Aug-16 @ 12:00 UTC
(in 23 hours)
Aug-15 @ 12:00 - Aug-16 @ 12:00
Wind Visibility
340° at 5 knots 10,000+ meters
Clouds
  • Few at 3,500' AGL